Time;durP1;ratioP1;P1;durP2;ratioP2;P2;SDS_P1;SDS_P2;PMS_P1;PMS_P2;Temp;Humidity;BMP_temperature;BMP_pressure;BME280_temperature;BME280_humidity;BME280_pressure;Samples;Min_cycle;Max_cycle;Signal;HPM_P1;HPM_P2
2021/10/03 00:00:48;;;;;;;14.88;8.10;;;11.90;93.70;;;;;;5015586;28;20060;-72
2021/10/03 00:03:19;;;;;;;14.55;8.18;;;11.90;93.40;;;;;;5015519;28;20470;-69
2021/10/03 00:05:51;;;;;;;15.20;7.40;;;11.90;93.40;;;;;;4997864;28;20079;-71
2021/10/03 00:08:17;;;;;;;15.43;8.10;;;11.90;93.50;;;;;;5015434;28;20030;-69
2021/10/03 00:10:43;;;;;;;13.77;7.10;;;11.80;94.00;;;;;;5015348;28;20025;-70
2021/10/03 00:13:09;;;;;;;21.58;8.45;;;11.80;93.80;;;;;;5015357;28;20030;-71
2021/10/03 00:15:37;;;;;;;14.90;8.07;;;11.60;94.00;;;;;;5015228;28;20033;-70
2021/10/03 00:18:06;;;;;;;20.40;8.10;;;11.50;94.30;;;;;;5014981;28;20386;-71
2021/10/03 00:20:32;;;;;;;12.52;7.68;;;11.40;94.40;;;;;;5015224;28;20381;-69
2021/10/03 00:22:58;;;;;;;12.90;7.40;;;11.30;94.80;;;;;;5015179;28;20488;-70
2021/10/03 00:25:28;;;;;;;31.10;7.80;;;11.30;95.00;;;;;;5015430;28;20109;-70
2021/10/03 00:27:54;;;;;;;15.50;7.90;;;11.30;94.90;;;;;;4997348;28;20033;-71
2021/10/03 00:30:21;;;;;;;13.93;8.02;;;11.40;95.20;;;;;;4997391;28;20537;-71
2021/10/03 00:32:48;;;;;;;12.98;7.40;;;11.30;95.30;;;;;;4997319;28;20093;-71
2021/10/03 00:35:15;;;;;;;11.43;7.72;;;11.40;95.50;;;;;;5009723;28;20054;-70
2021/10/03 00:37:41;;;;;;;15.55;8.85;;;11.40;96.10;;;;;;4977752;28;20038;-70
2021/10/03 00:40:09;;;;;;;18.02;8.27;;;11.40;96.20;;;;;;4995262;28;20118;-70
2021/10/03 00:42:36;;;;;;;15.43;8.02;;;11.50;96.10;;;;;;4995016;28;20018;-69
2021/10/03 00:45:17;;;;;;;14.57;8.23;;;11.50;96.20;;;;;;4994907;28;20114;-70
2021/10/03 00:47:43;;;;;;;12.50;7.68;;;11.50;96.00;;;;;;4995145;28;20022;-69
2021/10/03 00:50:13;;;;;;;13.30;8.10;;;11.40;96.00;;;;;;4995307;28;20034;-69
2021/10/03 00:52:42;;;;;;;16.70;8.60;;;11.40;96.00;;;;;;4977537;28;20022;-69
2021/10/03 00:55:08;;;;;;;13.23;8.15;;;11.40;96.30;;;;;;4977583;28;20030;-70
2021/10/03 00:57:34;;;;;;;15.98;8.60;;;11.40;97.20;;;;;;4994787;28;20038;-69
2021/10/03 01:00:00;;;;;;;17.70;8.45;;;11.30;97.00;;;;;;4977038;28;20023;-69
2021/10/03 01:02:26;;;;;;;16.35;7.78;;;11.30;97.10;;;;;;4994597;28;20387;-68
2021/10/03 01:04:52;;;;;;;13.43;8.13;;;11.30;97.30;;;;;;4994808;28;20084;-71
2021/10/03 01:07:18;;;;;;;16.60;7.97;;;11.30;97.40;;;;;;4977451;28;20038;-68
2021/10/03 01:09:44;;;;;;;14.15;7.97;;;11.30;97.50;;;;;;4994681;28;20084;-70
2021/10/03 01:12:12;;;;;;;12.93;8.70;;;11.30;97.70;;;;;;4994619;28;20026;-69
2021/10/03 01:14:38;;;;;;;12.82;7.93;;;11.30;97.80;;;;;;4994558;28;20019;-70
2021/10/03 01:17:04;;;;;;;16.15;8.63;;;11.20;98.40;;;;;;4994495;28;20034;-68
2021/10/03 01:19:32;;;;;;;10.60;7.65;;;11.30;98.50;;;;;;4994281;28;20031;-68
2021/10/03 01:21:58;;;;;;;14.10;7.53;;;11.30;98.80;;;;;;4977020;28;20037;-70
2021/10/03 01:24:25;;;;;;;20.15;8.00;;;11.20;98.70;;;;;;4994390;28;20430;-69
2021/10/03 01:26:51;;;;;;;11.32;7.40;;;11.20;98.90;;;;;;4994431;28;20030;-70
2021/10/03 01:29:17;;;;;;;13.93;7.82;;;11.20;99.20;;;;;;4994335;28;20101;-69
2021/10/03 01:31:42;;;;;;;18.80;7.47;;;11.20;99.40;;;;;;4994300;28;20109;-69
2021/10/03 01:34:09;;;;;;;13.50;7.75;;;11.10;99.40;;;;;;4976754;28;20027;-70
2021/10/03 01:36:36;;;;;;;13.95;7.13;;;11.10;99.40;;;;;;4993789;28;20137;-70
2021/10/03 01:39:02;;;;;;;11.73;6.70;;;11.10;99.10;;;;;;4994197;28;20383;-68
2021/10/03 01:41:28;;;;;;;11.20;6.70;;;11.10;99.20;;;;;;4976394;28;20081;-69
2021/10/03 01:43:54;;;;;;;14.07;7.43;;;11.10;99.30;;;;;;4994059;28;20093;-69
2021/10/03 01:46:20;;;;;;;11.75;6.45;;;11.10;99.20;;;;;;4994130;28;20034;-69
2021/10/03 01:48:46;;;;;;;17.77;7.32;;;11.10;99.20;;;;;;4976528;28;20378;-68
2021/10/03 01:51:14;;;;;;;9.35;6.90;;;11.00;99.50;;;;;;4993971;28;20026;-68
2021/10/03 01:53:43;;;;;;;10.73;6.72;;;11.00;99.90;;;;;;4993969;28;20037;-69
2021/10/03 01:56:11;;;;;;;11.88;7.60;;;11.00;99.90;;;;;;4993234;28;20072;-68
2021/10/03 01:58:47;;;;;;;14.95;7.90;;;11.00;99.80;;;;;;4976324;28;20066;-67
2021/10/03 02:01:16;;;;;;;12.55;7.25;;;11.00;99.90;;;;;;4993885;28;20026;-69
2021/10/03 02:03:42;;;;;;;15.43;7.43;;;11.00;99.90;;;;;;4993819;28;20543;-69
2021/10/03 02:06:08;;;;;;;13.27;7.63;;;11.00;99.90;;;;;;4976358;28;20080;-69
2021/10/03 02:08:34;;;;;;;13.05;7.72;;;11.00;99.90;;;;;;4993829;28;20022;-68
2021/10/03 02:11:01;;;;;;;12.18;7.43;;;11.00;99.90;;;;;;4993764;28;20419;-71
2021/10/03 02:13:27;;;;;;;10.10;7.25;;;11.00;99.90;;;;;;4993687;28;20022;-70
2021/10/03 02:15:53;;;;;;;11.73;6.85;;;11.00;99.90;;;;;;4976219;28;20027;-71
2021/10/03 02:18:21;;;;;;;16.75;7.38;;;10.90;99.90;;;;;;4993375;28;20031;-69
2021/10/03 02:20:53;;;;;;;13.57;7.18;;;10.90;99.90;;;;;;4993961;28;20371;-71
2021/10/03 02:23:22;;;;;;;13.63;7.25;;;10.80;99.90;;;;;;4993715;28;20157;-68
2021/10/03 02:25:52;;;;;;;19.75;7.68;;;10.60;99.90;;;;;;4976169;28;20601;-68
2021/10/03 02:28:21;;;;;;;13.77;7.63;;;10.60;99.90;;;;;;4993616;28;20101;-67
2021/10/03 02:30:49;;;;;;;9.95;6.90;;;10.50;99.90;;;;;;4976107;28;20154;-67
2021/10/03 02:33:16;;;;;;;17.40;8.60;;;10.50;99.90;;;;;;4993351;28;20574;-69
2021/10/03 02:35:42;;;;;;;18.17;8.25;;;10.60;99.90;;;;;;4993396;28;20054;-71
2021/10/03 02:38:14;;;;;;;17.90;7.70;;;10.60;99.90;;;;;;4993522;28;20031;-70
2021/10/03 02:40:42;;;;;;;13.95;8.32;;;10.60;99.90;;;;;;4976109;28;20375;-69
2021/10/03 02:43:08;;;;;;;15.50;9.02;;;10.60;99.90;;;;;;4993727;28;20177;-70
2021/10/03 02:45:39;;;;;;;12.07;7.95;;;10.60;99.90;;;;;;4975972;28;20022;-69
2021/10/03 02:48:05;;;;;;;15.48;7.88;;;10.50;99.90;;;;;;4993481;28;20113;-70
2021/10/03 02:50:31;;;;;;;11.18;7.35;;;10.60;99.90;;;;;;4993124;28;20173;-71
2021/10/03 02:52:57;;;;;;;13.18;8.40;;;10.50;99.90;;;;;;4975880;28;20121;-71
2021/10/03 02:55:24;;;;;;;12.48;8.13;;;10.50;99.90;;;;;;4993368;28;20530;-71
2021/10/03 02:57:49;;;;;;;16.80;8.13;;;10.50;99.90;;;;;;4993225;28;20459;-72
2021/10/03 03:00:16;;;;;;;15.48;8.77;;;10.50;99.90;;;;;;4975779;28;20035;-71
2021/10/03 03:02:42;;;;;;;12.35;7.68;;;;;;;;;;4993285;28;20038;-70
2021/10/03 03:05:08;;;;;;;15.13;7.93;;;;;;;;;;5008281;28;20181;-70
2021/10/03 03:07:35;;;;;;;11.60;7.18;;;;;;;;;;5010174;28;20073;-70
2021/10/03 03:10:06;;;;;;;13.50;7.95;;;;;;;;;;5011980;28;20065;-70
2021/10/03 03:12:32;;;;;;;14.90;7.90;;;;;;;;;;4996964;28;20031;-71
2021/10/03 03:14:59;;;;;;;11.25;7.82;;;;;;;;;;4996844;28;20022;-71
2021/10/03 03:17:25;;;;;;;19.63;7.93;;;;;;;;;;5011815;28;20032;-71
2021/10/03 03:19:51;;;;;;;14.63;7.47;;;;;;;;;;5011811;28;20027;-72
2021/10/03 03:22:17;;;;;;;15.80;8.30;;;;;;;;;;4996726;28;20101;-70
2021/10/03 03:24:44;;;;;;;17.65;8.75;;;;;;;;;;4996348;28;20527;-70
2021/10/03 03:27:10;;;;;;;18.13;9.82;;;;;;;;;;4996956;28;20113;-71
2021/10/03 03:29:38;;;;;;;20.25;12.25;;;;;;;;;;4996608;28;20026;-70
2021/10/03 03:32:04;;;;;;;28.48;15.43;;;;;;;;;;4979001;28;20479;-71
2021/10/03 03:34:31;;;;;;;30.85;15.45;;;;;;;;;;4996765;28;20030;-70
2021/10/03 03:36:58;;;;;;;25.30;14.38;;;;;;;;;;4997441;28;20050;-70
2021/10/03 03:39:24;;;;;;;25.77;14.60;;;;;;;;;;5016037;28;20049;-71
2021/10/03 03:41:50;;;;;;;22.95;13.73;;;;;;;;;;5015642;28;20490;-71
2021/10/03 03:44:16;;;;;;;19.00;9.98;;;;;;;;;;5015914;28;20109;-70
2021/10/03 03:46:42;;;;;;;16.95;9.95;;;;;;;;;;4998256;28;20121;-71
2021/10/03 03:49:09;;;;;;;13.15;8.32;;;;;;;;;;5015806;28;20030;-70
2021/10/03 03:51:35;;;;;;;17.00;8.65;;;;;;;;;;5015760;28;20026;-70
2021/10/03 03:54:01;;;;;;;14.40;7.93;;;;;;;;;;5015777;28;20025;-72
2021/10/03 03:56:27;;;;;;;12.55;7.88;;;;;;;;;;5015596;28;20046;-70
2021/10/03 03:58:54;;;;;;;13.38;7.88;;;;;;;;;;4997966;28;20053;-70
2021/10/03 04:01:20;;;;;;;15.75;8.25;;;;;;;;;;5015882;28;20105;-71
2021/10/03 04:03:47;;;;;;;11.60;8.23;;;;;;;;;;5015618;28;20030;-72
2021/10/03 04:06:14;;;;;;;15.18;7.88;;;;;;;;;;4996846;28;20058;-69
2021/10/03 04:08:40;;;;;;;15.80;7.63;;;;;;;;;;4997612;28;20058;-70
2021/10/03 04:11:13;;;;;;;13.75;8.35;;;;;;;;;;4997783;28;20029;-69
2021/10/03 04:13:40;;;;;;;10.55;7.15;;;;;;;;;;5015441;28;20120;-69
2021/10/03 04:16:06;;;;;;;13.85;7.57;;;;;;;;;;5015252;28;20048;-70
2021/10/03 04:18:32;;;;;;;12.90;7.88;;;;;;;;;;4997175;28;20040;-69
2021/10/03 04:20:59;;;;;;;16.25;7.30;;;;;;;;;;4997645;28;20088;-71
2021/10/03 04:23:25;;;;;;;11.88;8.13;;;;;;;;;;4997585;28;20026;-69
2021/10/03 04:25:51;;;;;;;15.23;7.95;;;;;;;;;;5015127;28;20022;-70
2021/10/03 04:28:18;;;;;;;15.52;8.43;;;;;;;;;;5015157;28;20113;-70
2021/10/03 04:30:44;;;;;;;16.55;8.95;;;;;;;;;;5015090;28;20026;-70
2021/10/03 04:33:10;;;;;;;13.07;8.40;;;;;;;;;;5015032;28;20056;-69
2021/10/03 04:35:36;;;;;;;16.95;9.27;;;;;;;;;;5006607;28;20047;-69
2021/10/03 04:38:03;;;;;;;20.85;10.48;;;;;;;;;;4994936;28;20372;-69
2021/10/03 04:40:29;;;;;;;16.00;8.80;;;;;;;;;;4995603;28;20030;-69
2021/10/03 04:42:55;;;;;;;17.95;8.55;;;;;;;;;;4995212;28;20069;-69
2021/10/03 04:45:21;;;;;;;16.65;8.55;;;;;;;;;;5009858;28;20161;-69
2021/10/03 04:47:47;;;;;;;15.38;8.50;;;;;;;;;;4995212;28;20187;-72
2021/10/03 04:50:14;;;;;;;18.92;8.82;;;;;;;;;;5010115;28;20360;-70
2021/10/03 04:52:41;;;;;;;25.92;9.57;;;;;;;;;;4995084;28;20030;-70
2021/10/03 04:55:09;;;;;;;13.68;8.88;;;;;;;;;;5010010;28;20026;-71
2021/10/03 04:57:36;;;;;;;16.50;8.50;;;;;;;;;;5009948;28;20102;-68
2021/10/03 05:00:06;;;;;;;13.00;8.20;;;;;;;;;;5009931;28;20046;-70
2021/10/03 05:02:32;;;;;;;12.50;8.23;;;;;;;;;;4994864;28;20034;-70
2021/10/03 05:04:59;;;;;;;15.73;8.20;;;;;;;;;;5009802;28;20550;-69
2021/10/03 05:07:25;;;;;;;10.48;7.55;;;;;;;;;;4990962;28;20394;-70
2021/10/03 05:09:51;;;;;;;12.20;6.95;;;;;;;;;;4993981;28;20089;-69
2021/10/03 05:12:18;;;;;;;10.50;7.43;;;;;;;;;;4994135;28;20113;-69
2021/10/03 05:14:44;;;;;;;16.20;7.53;;;;;;;;;;4994520;28;20061;-71
2021/10/03 05:17:10;;;;;;;13.85;7.80;;;;;;;;;;4994025;28;20117;-70
2021/10/03 05:19:36;;;;;;;10.45;7.93;;;;;;;;;;4994095;28;20476;-70
2021/10/03 05:22:03;;;;;;;12.40;8.27;;;;;;;;;;4994412;28;20022;-72
2021/10/03 05:24:30;;;;;;;14.57;8.10;;;;;;;;;;5009404;28;20026;-71
2021/10/03 05:26:56;;;;;;;14.75;8.48;;;;;;;;;;5009432;28;20034;-72
2021/10/03 05:29:22;;;;;;;20.92;8.63;;;;;;;;;;5008430;28;20387;-73
2021/10/03 05:31:49;;;;;;;18.17;8.05;;;;;;;;;;4991111;28;20109;-70
2021/10/03 05:34:15;;;;;;;17.10;8.57;;;;;;;;;;4993726;28;20058;-71
2021/10/03 05:36:42;;;;;;;19.55;9.27;;;;;;;;;;4993802;28;20046;-70
2021/10/03 05:39:08;;;;;;;11.88;8.13;;;;;;;;;;4993741;28;20451;-71
2021/10/03 05:41:35;;;;;;;9.73;7.10;;;;;;;;;;4993852;28;20465;-69
2021/10/03 05:44:01;;;;;;;13.82;7.53;;;10.80;99.90;;;;;;4994044;28;20026;-71
2021/10/03 05:46:27;;;;;;;14.38;7.03;;;10.90;99.90;;;;;;4993885;28;20085;-70
2021/10/03 05:48:52;;;;;;;12.95;6.93;;;10.90;99.90;;;;;;4993940;28;20026;-69
2021/10/03 05:51:19;;;;;;;12.23;7.28;;;10.90;99.90;;;;;;5008885;28;20026;-72
2021/10/03 05:53:45;;;;;;;10.60;6.97;;;10.90;99.90;;;;;;4994172;28;20036;-68
2021/10/03 05:56:11;;;;;;;14.40;7.55;;;11.00;99.90;;;;;;4993834;28;20046;-70
2021/10/03 05:58:37;;;;;;;13.73;7.35;;;11.00;99.90;;;;;;4993487;28;20463;-70
2021/10/03 06:01:03;;;;;;;11.48;7.10;;;11.10;99.90;;;;;;4993486;28;20423;-69
2021/10/03 06:03:29;;;;;;;11.50;7.28;;;11.10;99.90;;;;;;4993720;28;20530;-68
2021/10/03 06:05:54;;;;;;;11.23;6.60;;;11.20;99.90;;;;;;4994025;28;20102;-68
2021/10/03 06:08:20;;;;;;;10.88;6.70;;;11.20;99.90;;;;;;5008846;28;20026;-71
2021/10/03 06:10:46;;;;;;;13.80;6.93;;;11.30;99.90;;;;;;4993664;28;20038;-69
2021/10/03 06:13:13;;;;;;;12.00;7.68;;;11.40;99.90;;;;;;4993560;28;20038;-71
2021/10/03 06:15:43;;;;;;;9.82;6.45;;;11.50;99.90;;;;;;4975765;28;20475;-71
2021/10/03 06:18:13;;;;;;;10.45;6.45;;;11.50;99.90;;;;;;4975174;28;20046;-70
2021/10/03 06:20:40;;;;;;;16.00;6.50;;;11.60;99.90;;;;;;4993313;28;20030;-72
2021/10/03 06:23:06;;;;;;;9.80;6.60;;;11.70;99.90;;;;;;4976065;28;20031;-71
2021/10/03 06:25:33;;;;;;;12.43;6.85;;;11.70;99.90;;;;;;4993407;28;20058;-72
2021/10/03 06:27:59;;;;;;;10.15;6.15;;;11.80;99.90;;;;;;4993821;28;20158;-72
2021/10/03 06:30:25;;;;;;;12.02;6.80;;;11.90;99.90;;;;;;4993407;28;20086;-71
2021/10/03 06:32:50;;;;;;;11.15;7.28;;;11.90;99.90;;;;;;4993406;28;20133;-72
2021/10/03 06:35:17;;;;;;;10.00;6.95;;;12.00;99.90;;;;;;4993397;28;20085;-70
2021/10/03 06:37:43;;;;;;;15.65;7.88;;;12.00;99.90;;;;;;4992605;28;20041;-68
2021/10/03 06:40:09;;;;;;;17.15;8.52;;;12.10;99.90;;;;;;4993390;28;20023;-71
2021/10/03 06:42:35;;;;;;;14.65;8.02;;;12.20;99.90;;;;;;4979557;28;20065;-70
2021/10/03 06:45:01;;;;;;;12.88;7.53;;;12.20;99.90;;;;;;4997275;28;20054;-71
2021/10/03 06:47:26;;;;;;;14.07;8.27;;;12.30;99.90;;;;;;4997282;28;20034;-69
2021/10/03 06:49:52;;;;;;;15.13;8.50;;;12.40;99.90;;;;;;4997257;28;20026;-70
2021/10/03 06:52:19;;;;;;;17.17;9.48;;;12.40;99.90;;;;;;4996995;28;20036;-72
2021/10/03 06:54:44;;;;;;;13.32;8.38;;;12.50;99.90;;;;;;4997198;28;20026;-69
2021/10/03 06:57:11;;;;;;;11.73;6.65;;;12.60;99.90;;;;;;4979253;28;20038;-70
2021/10/03 06:59:37;;;;;;;17.33;11.65;;;12.60;99.90;;;;;;4995868;28;20049;-69
2021/10/03 07:02:17;;;;;;;14.05;8.35;;;12.70;99.90;;;;;;4978029;28;20026;-69
2021/10/03 07:04:43;;;;;;;13.90;10.30;;;12.80;99.90;;;;;;4997142;28;20077;-71
2021/10/03 07:07:09;;;;;;;14.80;11.32;;;12.80;99.90;;;;;;4996985;28;20030;-71
2021/10/03 07:09:35;;;;;;;13.50;10.82;;;13.00;99.90;;;;;;4997013;28;20034;-70
2021/10/03 07:12:01;;;;;;;27.52;17.25;;;13.00;99.90;;;;;;4979460;28;20022;-70
2021/10/03 07:14:27;;;;;;;14.15;8.90;;;13.10;99.90;;;;;;4996908;28;20026;-68
2021/10/03 07:16:53;;;;;;;15.80;8.60;;;13.30;99.90;;;;;;4979257;28;20038;-66
2021/10/03 07:19:19;;;;;;;12.73;8.55;;;13.30;99.90;;;;;;4996876;28;20375;-70
2021/10/03 07:21:44;;;;;;;15.50;9.00;;;13.50;99.90;;;;;;4996760;28;20034;-70
2021/10/03 07:24:10;;;;;;;20.77;9.20;;;13.60;99.90;;;;;;4975437;28;20125;-68
2021/10/03 07:26:36;;;;;;;13.00;7.68;;;13.70;99.90;;;;;;4996370;28;20470;-70
2021/10/03 07:29:03;;;;;;;13.40;7.53;;;13.90;99.90;;;;;;4978904;28;20031;-69
2021/10/03 07:31:29;;;;;;;12.93;6.95;;;14.00;99.90;;;;;;4996542;28;20450;-69
2021/10/03 07:33:56;;;;;;;14.90;9.13;;;14.20;99.80;;;;;;4996558;28;20051;-70
2021/10/03 07:36:21;;;;;;;11.50;8.50;;;14.30;98.40;;;;;;4978887;28;20038;-67
2021/10/03 07:38:49;;;;;;;12.65;7.45;;;14.50;99.50;;;;;;4996352;28;20031;-69
2021/10/03 07:41:15;;;;;;;13.88;8.15;;;14.60;98.80;;;;;;4996336;28;20552;-69
2021/10/03 07:43:43;;;;;;;12.52;7.53;;;14.70;99.40;;;;;;4996174;28;20475;-68
2021/10/03 07:46:09;;;;;;;14.23;7.78;;;14.80;97.90;;;;;;4978755;28;20033;-68
2021/10/03 07:48:36;;;;;;;11.55;6.72;;;15.00;98.10;;;;;;4996576;28;20037;-68
2021/10/03 07:51:02;;;;;;;11.68;6.82;;;15.10;95.70;;;;;;4996390;28;20034;-68
2021/10/03 07:53:27;;;;;;;15.45;6.78;;;15.20;96.00;;;;;;4995172;28;20026;-69
2021/10/03 07:55:53;;;;;;;18.77;6.53;;;15.30;96.60;;;;;;4978468;28;20121;-69
2021/10/03 07:58:19;;;;;;;12.20;6.60;;;15.40;97.20;;;;;;4996271;28;20105;-71
2021/10/03 08:00:45;;;;;;;18.70;6.85;;;15.60;95.40;;;;;;4978360;28;20121;-68
2021/10/03 08:03:11;;;;;;;13.73;6.13;;;15.70;95.60;;;;;;4996181;28;20031;-69
2021/10/03 08:05:37;;;;;;;7.68;5.95;;;15.80;95.70;;;;;;4995737;28;20054;-69
2021/10/03 08:08:04;;;;;;;11.00;6.88;;;15.90;95.20;;;;;;4995861;28;20038;-67
2021/10/03 08:10:31;;;;;;;13.32;6.68;;;16.10;93.90;;;;;;4995830;28;20022;-68
2021/10/03 08:12:57;;;;;;;13.07;6.70;;;16.20;93.20;;;;;;4995653;28;20042;-70
2021/10/03 08:15:27;;;;;;;9.70;5.93;;;16.40;93.80;;;;;;4995700;28;20022;-69
2021/10/03 08:17:53;;;;;;;12.18;6.18;;;16.60;92.70;;;;;;4995604;28;20038;-68
2021/10/03 08:20:20;;;;;;;11.15;6.47;;;16.80;93.80;;;;;;4995302;28;20109;-68
2021/10/03 08:22:45;;;;;;;8.65;6.22;;;17.00;91.30;;;;;;4995521;28;20034;-69
2021/10/03 08:25:11;;;;;;;12.00;5.82;;;17.10;91.50;;;;;;4995534;28;20041;-68
2021/10/03 08:27:38;;;;;;;10.45;6.28;;;17.30;91.80;;;;;;4977631;28;20033;-70
2021/10/03 08:30:05;;;;;;;10.45;5.90;;;17.50;90.60;;;;;;4978017;28;20474;-69
2021/10/03 08:32:31;;;;;;;11.90;6.10;;;17.70;91.30;;;;;;4995233;28;20042;-70
2021/10/03 08:34:57;;;;;;;11.55;5.85;;;17.90;89.50;;;;;;4994952;28;20692;-68
2021/10/03 08:37:24;;;;;;;13.23;5.95;;;18.10;89.90;;;;;;4995144;28;20093;-70
2021/10/03 08:39:50;;;;;;;11.93;6.35;;;18.30;87.50;;;;;;4995345;28;20033;-68
2021/10/03 08:42:16;;;;;;;8.98;6.30;;;18.40;86.60;;;;;;4977766;28;20034;-69
2021/10/03 08:44:42;;;;;;;11.43;6.10;;;;;;;;;;4977733;28;20039;-70
2021/10/03 08:47:09;;;;;;;11.18;5.82;;;;;;;;;;4973913;28;20172;-70
2021/10/03 08:49:35;;;;;;;13.90;6.22;;;;;;;;;;4977541;28;20120;-70
2021/10/03 08:52:01;;;;;;;15.13;6.50;;;18.50;86.50;;;;;;4977574;28;20111;-69
2021/10/03 08:54:27;;;;;;;14.13;6.97;;;19.20;84.10;;;;;;4994771;28;20119;-68
2021/10/03 08:56:55;;;;;;;21.02;8.48;;;19.30;84.40;;;;;;4994724;28;20120;-69
2021/10/03 08:59:21;;;;;;;11.52;7.30;;;19.50;86.40;;;;;;4977328;28;20045;-69
2021/10/03 09:01:57;;;;;;;9.68;5.80;;;19.60;82.80;;;;;;4994577;28;20460;-70
2021/10/03 09:04:35;;;;;;;13.75;7.97;;;19.80;82.90;;;;;;4977253;28;20463;-69
2021/10/03 09:07:04;;;;;;;11.98;6.20;;;20.00;81.00;;;;;;4994497;28;20063;-69
2021/10/03 09:09:56;;;;;;;12.60;6.78;;;20.10;81.30;;;;;;4977199;28;20498;-70
2021/10/03 09:12:32;;;;;;;10.93;6.13;;;20.30;80.00;;;;;;4977087;28;20026;-69
2021/10/03 09:15:00;;;;;;;15.18;8.23;;;20.30;81.10;;;;;;4977361;28;20486;-70
2021/10/03 09:17:29;;;;;;;10.38;6.28;;;20.50;79.80;;;;;;4992687;28;20893;-74
2021/10/03 09:20:11;;;;;;;16.40;10.93;;;20.70;77.60;;;;;;4995439;28;20031;-69
2021/10/03 09:23:07;;;;;;;9.93;6.10;;;20.80;77.50;;;;;;4993278;28;20037;-68
2021/10/03 09:25:37;;;;;;;13.07;7.05;;;21.00;77.90;;;;;;4993230;28;20109;-68
2021/10/03 09:28:12;;;;;;;13.52;7.50;;;21.10;77.30;;;;;;4993539;28;20435;-68
2021/10/03 09:31:07;;;;;;;12.10;7.22;;;21.30;76.90;;;;;;4994273;28;20106;-69
2021/10/03 09:33:45;;;;;;;8.90;5.43;;;21.60;75.70;;;;;;4994178;28;20050;-72
2021/10/03 09:36:14;;;;;;;11.98;6.25;;;21.70;76.00;;;;;;4994190;28;20085;-71
2021/10/03 09:38:45;;;;;;;18.42;9.23;;;;;;;;;;4994471;28;20038;-70
2021/10/03 09:41:11;;;;;;;;;;;;;;;;;;4994578;28;20538;-74
2021/10/03 09:43:40;;;;;;;9.25;5.82;;;22.10;74.60;;;;;;4994003;28;19910;-73
2021/10/03 09:46:06;;;;;;;10.85;6.18;;;;;;;;;;4993771;28;20057;-72
2021/10/03 09:48:46;;;;;;;7.00;5.50;;;22.40;73.50;;;;;;4993995;28;20058;-74
2021/10/03 09:51:13;;;;;;;11.32;5.57;;;22.70;71.90;;;;;;4994076;28;20030;-71
2021/10/03 09:53:39;;;;;;;11.45;5.30;;;22.70;71.70;;;;;;4994096;28;20049;-70
2021/10/03 09:56:05;;;;;;;15.85;6.45;;;23.00;72.10;;;;;;4976331;28;20026;-74
2021/10/03 09:58:31;;;;;;;15.95;5.93;;;23.20;70.70;;;;;;4993564;28;20026;-73
2021/10/03 10:00:57;;;;;;;9.93;5.40;;;23.30;70.50;;;;;;4993859;28;20034;-71
2021/10/03 10:03:24;;;;;;;12.70;5.22;;;23.50;68.30;;;;;;4993440;28;20198;-70
2021/10/03 10:05:50;;;;;;;13.50;6.40;;;23.60;69.90;;;;;;4993103;28;20034;-71
2021/10/03 10:08:16;;;;;;;13.13;4.82;;;23.90;66.90;;;;;;4975933;28;20394;-70
2021/10/03 10:10:42;;;;;;;13.68;5.78;;;24.60;65.60;;;;;;4993703;28;20199;-68
2021/10/03 10:13:17;;;;;;;10.43;5.30;;;24.80;66.40;;;;;;4993387;28;20035;-70
2021/10/03 10:15:43;;;;;;;7.03;5.10;;;25.10;66.00;;;;;;4993136;28;20057;-71
2021/10/03 10:18:23;;;;;;;9.10;6.03;;;;;;;;;;4993525;28;20478;-71
2021/10/03 10:20:49;;;;;;;9.13;5.82;;;;;;;;;;4993237;28;20030;-71
2021/10/03 10:23:19;;;;;;;12.63;6.55;;;;;;;;;;4993598;28;20073;-69
2021/10/03 10:25:45;;;;;;;11.65;5.55;;;;;;;;;;4993504;28;20105;-67
2021/10/03 10:28:15;;;;;;;12.80;5.28;;;;;;;;;;4993295;28;20029;-70
2021/10/03 10:31:19;;;;;;;13.25;5.30;;;29.20;56.50;;;;;;4993586;28;20110;-69
2021/10/03 10:33:52;;;;;;;10.25;5.60;;;29.80;55.80;;;;;;4975348;28;20051;-69
2021/10/03 10:36:19;;;;;;;8.60;5.28;;;29.90;55.90;;;;;;4993390;28;20069;-69
2021/10/03 10:39:04;;;;;;;9.30;5.80;;;;;;;;;;4976050;28;20022;-69
2021/10/03 10:41:37;;;;;;;9.95;5.22;;;31.10;53.50;;;;;;4976082;28;20030;-68
2021/10/03 10:44:28;;;;;;;11.68;5.68;;;31.60;52.40;;;;;;4993462;28;20507;-68
2021/10/03 10:46:57;;;;;;;10.40;5.68;;;;;;;;;;4975982;28;20034;-70
2021/10/03 10:49:35;;;;;;;8.45;5.38;;;;;;;;;;4993423;28;20022;-70
2021/10/03 10:52:29;;;;;;;9.30;5.32;;;;;;;;;;4993426;28;20026;-70
2021/10/03 10:55:07;;;;;;;7.90;5.60;;;32.30;51.80;;;;;;4990962;28;20125;-68
2021/10/03 10:57:57;;;;;;;10.63;5.57;;;;;;;;;;4993295;28;20027;-70
2021/10/03 11:00:27;;;;;;;11.73;5.97;;;;;;;;;;4984253;28;20054;-69
2021/10/03 11:03:01;;;;;;;8.40;5.27;;;;;;;;;;4975518;28;20023;-67
2021/10/03 11:05:42;;;;;;;13.73;6.47;;;34.10;48.20;;;;;;4974966;28;20180;-67
2021/10/03 11:08:13;;;;;;;9.75;5.82;;;;;;;;;;4992482;28;20081;-68
2021/10/03 11:11:00;;;;;;;8.05;5.45;;;;;;;;;;4992693;28;20027;-67
2021/10/03 11:13:53;;;;;;;8.25;5.22;;;35.60;46.90;;;;;;4993143;28;20031;-67
2021/10/03 11:16:28;;;;;;;11.13;5.20;;;;;;;;;;4993126;28;20038;-70
2021/10/03 11:18:59;;;;;;;11.23;5.63;;;36.90;44.30;;;;;;5008020;28;20434;-68
2021/10/03 11:21:40;;;;;;;7.15;5.07;;;37.70;42.50;;;;;;4975531;28;20117;-69
2021/10/03 11:24:08;;;;;;;11.70;5.00;;;;;;;;;;4993139;28;20066;-68
2021/10/03 11:26:48;;;;;;;9.05;4.95;;;;;;;;;;4993284;28;20049;-67
2021/10/03 11:29:15;;;;;;;8.85;4.82;;;38.00;42.00;;;;;;4995916;28;20031;-68
2021/10/03 11:31:47;;;;;;;8.05;5.60;;;38.80;41.20;;;;;;4996587;28;20054;-70
2021/10/03 11:34:33;;;;;;;6.20;4.70;;;39.00;40.40;;;;;;4997723;28;20058;-68
2021/10/03 11:37:10;;;;;;;7.22;4.85;;;39.00;40.90;;;;;;5016070;28;20030;-68
2021/10/03 11:39:43;;;;;;;8.90;5.40;;;39.20;41.30;;;;;;5016079;28;20072;-68
2021/10/03 11:42:12;;;;;;;10.40;5.85;;;39.50;40.70;;;;;;5015861;28;20038;-69
2021/10/03 11:44:40;;;;;;;9.75;5.40;;;39.70;40.90;;;;;;4998269;28;20030;-68
2021/10/03 11:47:12;;;;;;;8.15;5.20;;;39.80;40.60;;;;;;5015823;28;20084;-68
2021/10/03 11:49:41;;;;;;;9.88;5.40;;;40.10;73.00;;;;;;5015853;28;20117;-68
2021/10/03 11:52:14;;;;;;;11.73;5.40;;;40.10;39.90;;;;;;5015336;28;20029;-68
2021/10/03 11:54:49;;;;;;;8.15;5.30;;;40.10;40.10;;;;;;5015728;28;20053;-68
2021/10/03 11:57:20;;;;;;;8.70;4.53;;;;;;;;;;4997927;28;20497;-69
2021/10/03 11:59:47;;;;;;;7.25;4.43;;;40.50;38.90;;;;;;4995328;28;20026;-70
2021/10/03 12:02:15;;;;;;;9.95;4.85;;;;;;;;;;5010467;28;20029;-68
2021/10/03 12:05:02;;;;;;;9.45;5.25;;;;;;;;;;5013994;28;20026;-68
2021/10/03 12:07:28;;;;;;;10.20;5.57;;;40.70;52.10;;;;;;5015194;28;20164;-70
2021/10/03 12:10:04;;;;;;;10.55;5.28;;;40.50;43.80;;;;;;5015450;28;20414;-70
2021/10/03 12:12:46;;;;;;;7.20;4.63;;;40.90;39.80;;;;;;5015559;28;20105;-68
2021/10/03 12:15:41;;;;;;;8.30;4.75;;;41.10;38.60;;;;;;5013915;28;20471;-69
2021/10/03 12:18:10;;;;;;;8.40;4.28;;;41.40;38.80;;;;;;5014998;28;20037;-68
2021/10/03 12:21:09;;;;;;;9.75;4.75;;;41.60;38.20;;;;;;5015202;28;20061;-68
2021/10/03 12:23:55;;;;;;;6.05;4.60;;;41.30;47.60;;;;;;5009272;28;20085;-68
2021/10/03 12:26:26;;;;;;;7.93;4.82;;;41.50;38.40;;;;;;5013860;28;20037;-68
2021/10/03 12:29:08;;;;;;;9.60;5.38;;;41.70;38.20;;;;;;5015090;28;20037;-69
2021/10/03 12:31:43;;;;;;;11.18;4.45;;;41.50;37.70;;;;;;5013706;28;20034;-70
2021/10/03 12:34:14;;;;;;;6.55;5.13;;;42.00;38.40;;;;;;5014592;28;20049;-70
2021/10/03 12:36:55;;;;;;;11.15;4.93;;;42.10;38.00;;;;;;5012497;28;20066;-70
2021/10/03 12:39:32;;;;;;;11.07;4.65;;;42.20;38.10;;;;;;4994780;28;20027;-70
2021/10/03 12:42:28;;;;;;;5.55;4.60;;;42.30;37.10;;;;;;4995273;28;20031;-69
2021/10/03 12:44:57;;;;;;;8.40;4.50;;;42.30;37.30;;;;;;4950787;29;20428;-70
2021/10/03 12:47:24;;;;;;;9.18;4.75;;;42.50;37.20;;;;;;4934863;29;20040;-68
2021/10/03 12:49:50;;;;;;;9.27;4.80;;;42.60;36.90;;;;;;4918863;29;20044;-68
2021/10/03 12:52:17;;;;;;;6.13;4.93;;;42.30;37.10;;;;;;4934802;29;20083;-67
2021/10/03 12:54:43;;;;;;;10.45;4.60;;;42.20;37.40;;;;;;4934557;29;20036;-67
2021/10/03 12:57:11;;;;;;;6.55;4.65;;;42.10;37.50;;;;;;4934610;29;20051;-68
2021/10/03 12:59:37;;;;;;;14.55;4.88;;;;;;;;;;4918808;29;20386;-67
2021/10/03 13:02:03;;;;;;;6.90;4.50;;;42.50;37.60;;;;;;4934607;29;20031;-68
2021/10/03 13:04:33;;;;;;;10.18;5.00;;;42.60;37.10;;;;;;4934581;29;20042;-68
2021/10/03 13:06:59;;;;;;;8.10;4.63;;;42.70;36.20;;;;;;4934467;29;20607;-69
2021/10/03 13:09:25;;;;;;;10.85;4.63;;;42.80;37.00;;;;;;4918434;29;20135;-69
2021/10/03 13:11:50;;;;;;;10.00;5.05;;;41.60;36.80;;;;;;4934444;29;20027;-68
2021/10/03 13:14:16;;;;;;;10.43;4.95;;;38.20;39.00;;;;;;4950175;29;20047;-67
2021/10/03 13:16:43;;;;;;;8.35;4.60;;;35.80;42.30;;;;;;4950075;29;20045;-67